Bookmark and Share
Track history (hours):
 

MSC Maeva

Last reported at 2014-Apr-15 03:34 UTC. Time now 2014-Apr-17 09:42 UTC.
Position N 33°52' E 128°25'.

Type: Ship (hazmat cat A). MMSI: 371851000.

NotesDate/timePositionNaut miles runAvg speedWind from/ knotsBaromVisibWave heightAir tempDewpointWater temp
2014-Apr-15 03:34N 33°52' E 128°25'1715.9
2014-Apr-15 02:30N 33°39' E 128°12'77119.8
2014-Apr-13 11:32N 23°51' E 118°43'2321.6
2014-Apr-13 10:29N 23°37' E 118°24'2021.3
2014-Apr-13 09:33N 23°25' E 118°06'4120.2
2014-Apr-13 07:31N 23°02' E 117°29'2020.1
2014-Apr-13 06:33N 22°51' E 117°12'2020.0
2014-Apr-13 05:33N 22°40' E 116°54'15718.4
2014-Apr-12 21:04N 22°15' E 114°07'4 7.1
2014-Apr-12 20:33N 22°19' E 114°05'10 8.8
2014-Apr-12 19:22N 22°22' E 113°54'6 7.6
2014-Apr-12 18:33N 22°28' E 113°53'0 0.1
2014-Apr-12 17:25N 22°28' E 113°53'0 0.0
2014-Apr-12 16:19N 22°28' E 113°53'0 0.0
2014-Apr-12 15:31N 22°28' E 113°53'0 0.0
2014-Apr-12 14:07N 22°28' E 113°53'0 0.0
2014-Apr-12 13:19N 22°28' E 113°53'0 0.0
2014-Apr-12 11:13N 22°28' E 113°53'0 0.0
2014-Apr-12 10:31N 22°28' E 113°53'0 0.0
2014-Apr-12 09:25N 22°28' E 113°53'0 0.0
2014-Apr-12 08:31N 22°28' E 113°53'0 0.0
2014-Apr-12 07:13N 22°28' E 113°53'0 0.0
2014-Apr-12 06:25N 22°28' E 113°53'0 0.0
2014-Apr-12 05:13N 22°28' E 113°53'0 0.0
2014-Apr-12 04:30N 22°28' E 113°53'0 0.0
2014-Apr-12 03:30N 22°28' E 113°53'0 0.0
2014-Apr-12 02:12N 22°28' E 113°53'0 0.0
2014-Apr-12 01:30N 22°28' E 113°53'0 0.2
2014-Apr-12 00:33N 22°28' E 113°52'9 7.0
2014-Apr-11 23:17N 22°21' E 113°58'7 9.8
2014-Apr-11 22:32N 22°18' E 114°06'12 8.9
2014-Apr-11 21:12N 22°09' E 114°14'  
2014-Apr-08 13:25N 01°12' E 103°53'5 5.5
2014-Apr-08 12:33N 01°13' E 103°48'4 4.0
2014-Apr-08 11:33N 01°16' E 103°46'0 0.0
2014-Apr-08 10:33N 01°16' E 103°46'0 0.0
2014-Apr-08 09:33N 01°16' E 103°46'0 0.0
2014-Apr-08 08:33N 01°16' E 103°46'0 0.0
2014-Apr-08 07:33N 01°16' E 103°46'0 0.0
2014-Apr-08 06:33N 01°16' E 103°46'0 0.0
2014-Apr-08 05:33N 01°16' E 103°46'0 0.0
2014-Apr-08 04:33N 01°16' E 103°46'0 0.0
2014-Apr-08 03:33N 01°16' E 103°46'0 0.0
2014-Apr-08 02:33N 01°16' E 103°46'0 0.0
2014-Apr-08 01:33N 01°16' E 103°46'0 0.0
2014-Apr-08 00:33N 01°16' E 103°46'0 0.0
2014-Apr-07 23:33N 01°16' E 103°46'0 0.0
2014-Apr-07 22:33N 01°16' E 103°46'0 0.0
2014-Apr-07 21:33N 01°16' E 103°46'0 0.0
2014-Apr-07 20:33N 01°16' E 103°46'0 0.0
2014-Apr-07 19:33N 01°16' E 103°46'0 0.0
2014-Apr-07 17:33N 01°16' E 103°46'0 0.0
2014-Apr-07 16:33N 01°16' E 103°46'0 0.0
2014-Apr-07 15:33N 01°16' E 103°46'0 0.0
2014-Apr-07 14:33N 01°16' E 103°46'0 0.0
2014-Apr-07 13:33N 01°16' E 103°46'0 0.0
2014-Apr-07 12:33N 01°16' E 103°46'0 0.0
2014-Apr-07 11:33N 01°16' E 103°46'0 0.0
2014-Apr-07 10:33N 01°16' E 103°46'0 0.0
2014-Apr-07 09:33N 01°16' E 103°46'0 0.0
2014-Apr-07 08:33N 01°16' E 103°46'0 0.0
2014-Apr-07 07:33N 01°16' E 103°46'0 0.0
2014-Apr-07 06:33N 01°16' E 103°46'0 0.0
2014-Apr-07 05:33N 01°16' E 103°46'0 0.0
2014-Apr-07 04:33N 01°16' E 103°46'0 0.0
2014-Apr-07 03:33N 01°16' E 103°46'0 0.0
2014-Apr-07 02:33N 01°16' E 103°46'0 0.0
2014-Apr-07 01:33N 01°16' E 103°46'0 0.0
2014-Apr-07 00:33N 01°16' E 103°46'0 0.0
2014-Apr-06 23:33N 01°16' E 103°46'0 0.0
2014-Apr-06 22:33N 01°16' E 103°46'0 0.0
2014-Apr-06 21:33N 01°16' E 103°46'0 0.0
2014-Apr-06 20:33N 01°16' E 103°46'1 1.4
2014-Apr-06 19:33N 01°15' E 103°45'9 8.9
2014-Apr-06 18:33N 01°12' E 103°37'3 3.2
2014-Apr-06 17:33N 01°11' E 103°34'8 8.1
2014-Apr-06 16:34N 01°11' E 103°26'  

Dump ship's entire track history

sailing weather and tide predictions

MSC Maeva — H9TF — position and weather